Elimsport, Pennsylvania
Current Conditions -  °F | °C
As of 3:54 PM on Sunday 23 Nov 2014 (Local Time) from KIPT Reporting Station
Clear Clear  
Wind Chill: 48°   Ceiling: Unl
Heat Index: 48°   Visibility: 10mi
Dew Point: 26°   Wind: 3mph
Humidity: 42%   Direction: 150°SSE
Pressure: 30.03"   Gusts: NA
Location:  41.1181°N, 77.0218°W
Report Text: KIPT 232054Z 15003KT 10SM CLR 09/M03 A3003 RMK AO2 SLP174 T00891033 58019
Loading
Personal Weather Stations






























Interactive Weather Map New forecast layout! Learn more

10-Day Weather Forecast

Advertisements
Track Severe Weather on mobile